Time;durP1;ratioP1;P1;durP2;ratioP2;P2;SDS_P1;SDS_P2;PMS_P1;PMS_P2;Temp;Humidity;BMP_temperature;BMP_pressure;BME280_temperature;BME280_humidity;BME280_pressure;Samples;Min_cycle;Max_cycle;Signal;HPM_P1;HPM_P2
2023/09/03 00:00:22;;;;;;;;;;;;;;;;;;4987834;28;92925;-80
2023/09/03 00:02:49;;;;;;;7.90;2.92;;;;;;;;;;4994186;28;94146;-81
2023/09/03 00:05:15;;;;;;;6.40;3.22;;;;;;;;;;4997628;28;92438;-81
2023/09/03 00:07:42;;;;;;;5.53;3.03;;;;;;;;;;4988487;28;93059;-80
2023/09/03 00:10:08;;;;;;;7.70;3.40;;;;;;;;;;4972479;28;93546;-80
2023/09/03 00:12:35;;;;;;;5.82;3.00;;;;;;;;;;4991361;28;91781;-80
2023/09/03 00:15:02;;;;;;;8.52;3.60;;;;;;;;;;4993337;28;92735;-80
2023/09/03 00:17:29;;;;;;;7.13;3.28;;;;;;;;;;5004103;28;92916;-80
2023/09/03 00:19:55;;;;;;;8.30;2.97;;;;;;;;;;5003851;28;94843;-81
2023/09/03 00:22:22;;;;;;;6.45;2.80;;;;;;;;;;5001166;28;92774;-80
2023/09/03 00:24:49;;;;;;;7.55;3.35;;;;;;;;;;4990957;28;92489;-80
2023/09/03 00:27:16;;;;;;;6.97;2.80;;;;;;;;;;4991224;28;92774;-80
2023/09/03 00:29:42;;;;;;;8.10;3.08;;;;;;;;;;4990945;28;93229;-81
2023/09/03 00:32:09;;;;;;;7.57;2.88;;;;;;;;;;4991858;28;92602;-81
2023/09/03 00:34:35;;;;;;;6.80;2.97;;;;;;;;;;4990063;28;92864;-81
2023/09/03 00:37:02;;;;;;;6.65;2.78;;;;;;;;;;4993136;28;91960;-79
2023/09/03 00:39:28;;;;;;;8.50;3.03;;;;;;;;;;4990000;28;93225;-80
2023/09/03 00:41:55;;;;;;;6.10;2.60;;;;;;;;;;4954799;28;95102;-80
2023/09/03 00:44:22;;;;;;;6.68;3.25;;;;;;;;;;4988148;28;95149;-80
2023/09/03 00:46:48;;;;;;;6.40;2.47;;;;;;;;;;4989248;28;95358;-80
2023/09/03 00:49:19;;;;;;;6.68;3.00;;;;;;;;;;4989217;28;94107;-80
2023/09/03 00:51:46;;;;;;;6.65;2.70;;;;;;;;;;4989374;28;92515;-81
2023/09/03 00:54:12;;;;;;;7.00;2.80;;;;;;;;;;4989211;28;92759;-80
2023/09/03 00:56:39;;;;;;;5.65;2.75;;;;;;;;;;4989200;28;94918;-81
2023/09/03 00:59:06;;;;;;;7.00;2.90;;;;;;;;;;4974841;28;93061;-80
2023/09/03 01:01:33;;;;;;;6.05;2.65;;;;;;;;;;4971409;28;95296;-81
2023/09/03 01:04:00;;;;;;;7.25;3.00;;;;;;;;;;4971405;28;92532;-81
2023/09/03 01:06:26;;;;;;;6.82;2.90;;;;;;;;;;4989327;28;92810;-81
2023/09/03 01:08:53;;;;;;;6.95;3.08;;;;;;;;;;4969069;28;98189;-80
2023/09/03 01:11:38;;;;;;;7.35;2.88;;;;;;;;;;4973299;28;92628;-79
2023/09/03 01:14:10;;;;;;;6.70;2.90;;;;;;;;;;4994111;28;92989;-80
2023/09/03 01:16:44;;;;;;;6.10;2.80;;;;;;;;;;4974724;28;94827;-80
2023/09/03 01:19:30;;;;;;;7.55;3.08;;;;;;;;;;4961763;28;92805;-79
2023/09/03 01:22:04;;;;;;;7.85;2.80;;;;;;;;;;4979054;28;95852;-78
2023/09/03 01:24:31;;;;;;;6.28;2.80;;;;;;;;;;4970438;28;92862;-81
2023/09/03 01:27:04;;;;;;;6.47;3.22;;;;;;;;;;4985324;28;93084;-81
2023/09/03 01:29:31;;;;;;;7.32;2.80;;;;;;;;;;4997841;28;93536;-81
2023/09/03 01:31:59;;;;;;;7.65;2.70;;;;;;;;;;4970689;28;92812;-81
2023/09/03 01:34:26;;;;;;;7.75;2.50;;;;;;;;;;4987939;28;95149;-81
2023/09/03 01:36:53;;;;;;;7.43;2.70;;;;;;;;;;4991619;28;94129;-81
2023/09/03 01:39:20;;;;;;;5.68;2.50;;;;;;;;;;4973944;28;92779;-81
2023/09/03 01:41:46;;;;;;;4.57;2.30;;;;;;;;;;4992115;28;93201;-81
2023/09/03 01:44:13;;;;;;;5.55;2.42;;;;;;;;;;4995205;28;93272;-81
2023/09/03 01:46:49;;;;;;;5.75;2.40;;;;;;;;;;4973987;28;95967;-81
2023/09/03 01:49:35;;;;;;;5.22;2.25;;;;;;;;;;4992153;28;93079;-81
2023/09/03 01:52:13;;;;;;;5.85;2.55;;;;;;;;;;4992625;28;92294;-80
2023/09/03 01:54:46;;;;;;;5.80;2.17;;;;;;;;;;4958449;28;93965;-80
2023/09/03 01:57:33;;;;;;;5.68;2.17;;;;;;;;;;4992147;28;93298;-80
2023/09/03 02:00:05;;;;;;;5.75;2.50;;;;;;;;;;4972666;28;95251;-80
2023/09/03 02:02:42;;;;;;;5.53;2.30;;;;;;;;;;4989009;28;94906;-81
2023/09/03 02:05:08;;;;;;;4.43;2.20;;;;;;;;;;4991481;28;94223;-80
2023/09/03 02:07:35;;;;;;;6.18;2.55;;;;;;;;;;4976677;28;92495;-80
2023/09/03 02:10:02;;;;;;;5.97;2.22;;;;;;;;;;4973286;28;94246;-80
2023/09/03 02:12:29;;;;;;;5.25;2.63;;;;;;;;;;4974073;28;92595;-80
2023/09/03 02:14:55;;;;;;;5.65;2.60;;;;;;;;;;4973436;28;93920;-80
2023/09/03 02:17:23;;;;;;;6.05;2.60;;;;;;;;;;4992563;28;92522;-80
2023/09/03 02:19:50;;;;;;;6.13;2.45;;;;;;;;;;4973887;28;95016;-80
2023/09/03 02:22:17;;;;;;;4.57;2.25;;;;;;;;;;4985638;28;94713;-80
2023/09/03 02:24:44;;;;;;;5.65;2.35;;;;;;;;;;4995135;28;95556;-81
2023/09/03 02:27:10;;;;;;;5.50;2.53;;;;;;;;;;4980917;28;92537;-80
2023/09/03 02:29:38;;;;;;;5.30;2.58;;;;;;;;;;4993203;28;92453;-81
2023/09/03 02:32:05;;;;;;;5.43;2.40;;;;;;;;;;4964448;28;92572;-81
2023/09/03 02:34:32;;;;;;;5.68;2.38;;;;;;;;;;4992911;28;92729;-81
2023/09/03 02:36:58;;;;;;;5.13;2.30;;;;;;;;;;4974506;28;93028;-80
2023/09/03 02:39:25;;;;;;;5.72;2.70;;;;;;;;;;4993784;28;92666;-80
2023/09/03 02:41:52;;;;;;;6.28;2.80;;;;;;;;;;4995475;28;93219;-82
2023/09/03 02:44:18;;;;;;;7.05;3.10;;;;;;;;;;4995072;28;92678;-82
2023/09/03 02:46:45;;;;;;;5.82;2.67;;;;;;;;;;4972975;28;92973;-82
2023/09/03 02:49:11;;;;;;;5.88;2.58;;;;;;;;;;4985880;28;95006;-81
2023/09/03 02:51:39;;;;;;;7.60;3.10;;;;;;;;;;4982857;28;93034;-81
2023/09/03 02:54:06;;;;;;;5.65;2.42;;;;;;;;;;4991859;28;92784;-81
2023/09/03 02:56:33;;;;;;;6.80;2.65;;;;;;;;;;4973338;28;96182;-81
2023/09/03 02:59:00;;;;;;;6.72;2.40;;;;;;;;;;4973503;28;93075;-82
2023/09/03 03:01:26;;;;;;;4.88;2.38;;;;;;;;;;4971445;28;94008;-81
2023/09/03 03:03:53;;;;;;;6.47;2.40;;;;;;;;;;4993153;28;95430;-81
2023/09/03 03:06:20;;;;;;;4.63;2.30;;;;;;;;;;4982938;28;92309;-81
2023/09/03 03:08:47;;;;;;;5.53;2.45;;;;;;;;;;4990883;28;92876;-80
2023/09/03 03:11:15;;;;;;;4.18;2.30;;;;;;;;;;4996436;28;94301;-82
2023/09/03 03:13:52;;;;;;;7.35;2.53;;;;;;;;;;4979439;28;95821;-81
2023/09/03 03:16:21;;;;;;;5.82;2.30;;;;;;;;;;4977462;28;96022;-81
2023/09/03 03:18:50;;;;;;;5.80;2.22;;;;;;;;;;4977348;28;92444;-81
2023/09/03 03:21:21;;;;;;;3.88;2.03;;;;;;;;;;4987088;28;94416;-81
2023/09/03 03:23:51;;;;;;;4.28;2.17;;;;;;;;;;4977022;28;95282;-80
2023/09/03 03:26:26;;;;;;;6.32;2.30;;;;;;;;;;4996810;28;92018;-81
2023/09/03 03:28:53;;;;;;;5.97;2.47;;;;;;;;;;4997981;28;93821;-81
2023/09/03 03:31:20;;;;;;;6.82;2.20;;;;;;;;;;4951899;28;92619;-81
2023/09/03 03:33:51;;;;;;;6.55;2.33;;;;;;;;;;4964902;28;92428;-81
2023/09/03 03:36:21;;;;;;;5.63;2.08;;;;;;;;;;4977381;28;92730;-81
2023/09/03 03:38:48;;;;;;;5.13;2.35;;;;;;;;;;4953965;28;94968;-81
2023/09/03 03:41:17;;;;;;;8.82;2.28;;;;;;;;;;4964747;28;98318;-81
2023/09/03 03:43:49;;;;;;;5.10;2.50;;;;;;;;;;4973057;28;95976;-81
2023/09/03 03:46:18;;;;;;;5.50;2.40;;;;;;;;;;4972588;28;92528;-81
2023/09/03 03:48:47;;;;;;;4.63;2.22;;;;;;;;;;4991652;28;92823;-81
2023/09/03 03:51:16;;;;;;;5.78;2.50;;;;;;;;;;4972114;28;95888;-81
2023/09/03 03:53:43;;;;;;;4.65;2.20;;;;;;;;;;4972175;28;92521;-81
2023/09/03 03:56:10;;;;;;;7.68;2.60;;;;;;;;;;4975147;28;95852;-81
2023/09/03 03:58:38;;;;;;;5.68;2.30;;;;;;;;;;4972191;28;92604;-82
2023/09/03 04:01:05;;;;;;;;;;;;;;;;;;4990550;28;93182;-82
2023/09/03 04:03:32;;;;;;;7.32;2.50;;;;;;;;;;4972366;28;98331;-82
2023/09/03 04:06:00;;;;;;;6.00;2.13;;;;;;;;;;4990180;28;92475;-82
2023/09/03 04:08:28;;;;;;;7.35;2.40;;;;;;;;;;4990491;28;93226;-82
2023/09/03 04:10:55;;;;;;;5.90;2.22;;;;;;;;;;4989953;28;93165;-82
2023/09/03 04:13:22;;;;;;;5.90;2.10;;;;;;;;;;4972336;28;92834;-81
2023/09/03 04:15:49;;;;;;;6.47;2.70;;;;;;;;;;4975405;28;95174;-81
2023/09/03 04:18:15;;;;;;;6.22;2.03;;;;;;;;;;4990226;28;92687;-81
2023/09/03 04:20:42;;;;;;;10.02;2.97;;;;;;;;;;4972304;28;94216;-81
2023/09/03 04:23:09;;;;;;;5.75;2.72;;;;;;;;;;4971558;28;96438;-82
2023/09/03 04:25:36;;;;;;;5.68;2.75;;;;;;;;;;4971677;28;92514;-82
2023/09/03 04:28:04;;;;;;;6.10;2.25;;;;;;;;;;4969604;28;94993;-80
2023/09/03 04:30:31;;;;;;;4.93;2.35;;;;;;;;;;4990062;28;93297;-81
2023/09/03 04:32:58;;;;;;;6.22;3.03;;;;;;;;;;4990038;28;92849;-80
2023/09/03 04:35:24;;;;;;;4.95;2.30;;;;;;;;;;4974214;28;94572;-80
2023/09/03 04:37:52;;;;;;;5.55;2.20;;;;;;;;;;4977542;28;95849;-81
2023/09/03 04:40:19;;;;;;;6.63;2.58;;;;;;;;;;4959075;28;95803;-83
2023/09/03 04:42:48;;;;;;;5.70;2.47;;;;;;;;;;4971989;28;95677;-83
2023/09/03 04:45:16;;;;;;;5.10;2.33;;;;;;;;;;4974887;28;91849;-83
2023/09/03 04:47:43;;;;;;;5.38;2.53;;;;;;;;;;4993208;28;93415;-83
2023/09/03 04:50:11;;;;;;;4.80;2.20;;;;;;;;;;4972470;28;95931;-81
2023/09/03 04:52:42;;;;;;;4.65;2.30;;;;;;;;;;4970108;28;95343;-81
2023/09/03 04:55:10;;;;;;;5.38;2.28;;;;;;;;;;4971312;28;97997;-84
2023/09/03 04:57:37;;;;;;;4.30;1.92;;;;;;;;;;4955180;28;95654;-81
2023/09/03 05:00:04;;;;;;;4.05;2.00;;;;;;;;;;4974921;28;93105;-80
2023/09/03 05:02:31;;;;;;;4.10;2.00;;;;;;;;;;4962858;28;95594;-82
2023/09/03 05:04:58;;;;;;;;;;;;;;;;;;4972295;28;92728;-84
2023/09/03 05:07:25;;;;;;;6.35;2.28;;;;;;;;;;4973506;28;106789;-83
2023/09/03 05:09:55;;;;;;;5.05;2.38;;;;;;;;;;4972256;28;93159;-84
2023/09/03 05:12:24;;;;;;;4.32;2.08;;;;;;;;;;4980100;28;93443;-83
2023/09/03 05:14:51;;;;;;;5.22;2.00;;;;;;;;;;4999399;28;93141;-83
2023/09/03 05:17:18;;;;;;;4.55;2.08;;;;;;;;;;4995792;28;95487;-82
2023/09/03 05:19:45;;;;;;;5.13;2.20;;;;;;;;;;4979194;28;92808;-83
2023/09/03 05:22:11;;;;;;;4.15;2.13;;;;;;;;;;4962120;28;95457;-83
2023/09/03 05:24:38;;;;;;;8.77;2.70;;;;;;;;;;4975652;28;92421;-83
2023/09/03 05:27:04;;;;;;;5.90;2.17;;;;;;;;;;4987671;28;92963;-83
2023/09/03 05:29:31;;;;;;;5.90;2.28;;;;;;;;;;4990576;28;92841;-83
2023/09/03 05:31:57;;;;;;;4.75;2.20;;;;;;;;;;4970831;28;92721;-83
2023/09/03 05:34:25;;;;;;;5.72;2.28;;;;;;;;;;4989924;28;93193;-83
2023/09/03 05:36:52;;;;;;;5.38;2.50;;;;;;;;;;4970284;28;94740;-83
2023/09/03 05:39:18;;;;;;;7.55;2.10;;;;;;;;;;4970552;28;92580;-83
2023/09/03 05:41:45;;;;;;;8.27;2.13;;;;;;;;;;4969062;28;96198;-82
2023/09/03 05:44:15;;;;;;;5.43;2.00;;;;;;;;;;4973194;28;95629;-83
2023/09/03 05:46:43;;;;;;;5.20;2.03;;;;;;;;;;4970399;28;94783;-83
2023/09/03 05:49:09;;;;;;;9.18;2.40;;;;;;;;;;4970384;28;96154;-83
2023/09/03 05:51:36;;;;;;;5.00;2.28;;;;;;;;;;4988371;28;93008;-83
2023/09/03 05:54:03;;;;;;;4.95;2.00;;;;;;;;;;4988810;28;93133;-83
2023/09/03 05:56:30;;;;;;;;;;;;;;;;;;4970683;28;94626;-84
2023/09/03 05:59:02;;;;;;;4.82;2.20;;;;;;;;;;4972066;28;92832;-83
2023/09/03 06:01:30;;;;;;;4.95;2.20;;;;;;;;;;4970291;28;95058;-83
2023/09/03 06:03:57;;;;;;;5.32;2.28;;;;;;;;;;4987476;28;93104;-82
2023/09/03 06:06:23;;;;;;;4.90;2.08;;;;;;;;;;4971918;28;95326;-83
2023/09/03 06:08:50;;;;;;;5.13;2.10;;;;;;;;;;4988203;28;93443;-83
2023/09/03 06:11:17;;;;;;;4.78;1.98;;;;;;;;;;4970412;28;92892;-83
2023/09/03 06:13:43;;;;;;;6.18;2.50;;;;;;;;;;4970525;28;95666;-83
2023/09/03 06:16:10;;;;;;;5.20;2.20;;;;;;;;;;4988073;28;92925;-83
2023/09/03 06:18:37;;;;;;;5.57;2.38;;;;;;;;;;4988569;28;92701;-83
2023/09/03 06:21:04;;;;;;;4.82;2.20;;;;;;;;;;4987456;28;94231;-83
2023/09/03 06:23:31;;;;;;;5.95;2.50;;;;;;;;;;4972198;28;93960;-83
2023/09/03 06:25:57;;;;;;;5.28;2.30;;;;;;;;;;4976448;28;93390;-82
2023/09/03 06:28:26;;;;;;;6.50;2.28;;;;;;;;;;4991502;28;92941;-83
2023/09/03 06:30:53;;;;;;;4.95;2.22;;;;;;;;;;4990177;28;94899;-83
2023/09/03 06:33:19;;;;;;;5.80;2.20;;;;;;;;;;4991401;28;95620;-83
2023/09/03 06:35:46;;;;;;;8.32;2.85;;;;;;;;;;4991081;28;93572;-80
2023/09/03 06:38:12;;;;;;;5.40;2.35;;;;;;;;;;4991533;28;93407;-82
2023/09/03 06:40:39;;;;;;;6.22;2.30;;;;;;;;;;4991092;28;93384;-83
2023/09/03 06:43:05;;;;;;;5.18;2.47;;;;;;;;;;4992310;28;93039;-82
2023/09/03 06:45:32;;;;;;;6.32;2.45;;;;;;;;;;4993232;28;92806;-82
2023/09/03 06:47:59;;;;;;;6.32;2.47;;;;;;;;;;4997075;28;92024;-83
2023/09/03 06:50:26;;;;;;;9.10;2.75;;;;;;;;;;4978043;28;92760;-82
2023/09/03 06:52:52;;;;;;;5.85;2.35;;;;;;;;;;4991062;28;92739;-82
2023/09/03 06:55:19;;;;;;;5.93;2.53;;;;;;;;;;4971331;28;98542;-82
2023/09/03 06:57:45;;;;;;;7.78;2.40;;;;;;;;;;4968383;28;92834;-82
2023/09/03 07:00:12;;;;;;;6.00;2.78;;;;;;;;;;4973332;28;93414;-83
2023/09/03 07:02:39;;;;;;;6.50;2.70;;;;;;;;;;4972808;28;95894;-84
2023/09/03 07:05:06;;;;;;;6.15;2.50;;;;;;;;;;4995017;28;92440;-82
2023/09/03 07:07:32;;;;;;;6.97;2.50;;;;;;;;;;4992609;28;93187;-83
2023/09/03 07:09:59;;;;;;;5.95;2.60;;;;;;;;;;4976294;28;94559;-83
2023/09/03 07:12:26;;;;;;;7.13;3.00;;;;;;;;;;4991358;28;92746;-82
2023/09/03 07:14:53;;;;;;;6.90;2.70;;;;;;;;;;4991701;28;93503;-82
2023/09/03 07:17:19;;;;;;;5.85;2.53;;;;;;;;;;4992279;28;94265;-83
2023/09/03 07:19:46;;;;;;;6.13;2.83;;;;;;;;;;4990191;28;95120;-82
2023/09/03 07:22:12;;;;;;;9.00;3.20;;;;;;;;;;4991058;28;93563;-82
2023/09/03 07:24:39;;;;;;;6.93;2.78;;;;;;;;;;4973173;28;92680;-81
2023/09/03 07:27:06;;;;;;;6.53;3.03;;;;;;;;;;4991949;28;92434;-81
2023/09/03 07:29:32;;;;;;;5.38;2.65;;;;;;;;;;4972859;28;92933;-81
2023/09/03 07:31:59;;;;;;;6.00;2.50;;;;;;;;;;4993364;28;92887;-81
2023/09/03 07:34:25;;;;;;;5.55;2.67;;;;;;;;;;4990112;28;93120;-81
2023/09/03 07:36:52;;;;;;;5.80;2.65;;;;;;;;;;4973020;28;92047;-81
2023/09/03 07:39:18;;;;;;;5.20;2.40;;;;;;;;;;4972810;28;92709;-81
2023/09/03 07:41:45;;;;;;;4.90;2.53;;;;;;;;;;4990382;28;93939;-81
2023/09/03 07:44:12;;;;;;;6.05;2.40;;;;;;;;;;4971237;28;95183;-81
2023/09/03 07:46:39;;;;;;;6.43;2.60;;;;;;;;;;4990247;28;95168;-80
2023/09/03 07:49:05;;;;;;;7.35;2.70;;;;;;;;;;4990369;28;93459;-81
2023/09/03 07:51:32;;;;;;;6.75;2.22;;;;;;;;;;4990231;28;92516;-82
2023/09/03 07:53:58;;;;;;;5.68;2.50;;;;;;;;;;4993147;28;93615;-81
2023/09/03 07:56:25;;;;;;;5.32;2.15;;;;;;;;;;4963501;28;93003;-81
2023/09/03 07:58:52;;;;;;;8.13;3.58;;;;;;;;;;4989929;28;92699;-81
2023/09/03 08:01:19;;;;;;;9.77;5.10;;;;;;;;;;4990159;28;91960;-81
2023/09/03 08:03:46;;;;;;;;;;;;;;;;;;4990107;28;92761;-81
2023/09/03 08:06:13;;;;;;;5.93;2.47;;;;;;;;;;4990680;28;112799;-80
2023/09/03 08:08:40;;;;;;;9.43;2.75;;;;;;;;;;4969756;28;98625;-81
2023/09/03 08:11:07;;;;;;;8.23;3.42;;;;;;;;;;4977350;28;92465;-82
2023/09/03 08:13:33;;;;;;;8.80;3.17;;;;;;;;;;4953160;28;92860;-82
2023/09/03 08:16:02;;;;;;;10.85;5.55;;;;;;;;;;4976239;28;93307;-81
2023/09/03 08:18:28;;;;;;;7.05;2.90;;;;;;;;;;4971950;28;92541;-81
2023/09/03 08:20:55;;;;;;;8.35;3.47;;;;;;;;;;4971285;28;93094;-81
2023/09/03 08:23:21;;;;;;;9.63;4.70;;;;;;;;;;4989053;28;93080;-80
2023/09/03 08:25:48;;;;;;;8.50;3.30;;;;;;;;;;4981046;28;93009;-82
2023/09/03 08:28:15;;;;;;;11.15;5.72;;;;;;;;;;4984305;28;95456;-82
2023/09/03 08:30:42;;;;;;;9.18;3.55;;;;;;;;;;4989616;28;92803;-83
2023/09/03 08:33:08;;;;;;;9.82;4.60;;;;;;;;;;4988304;28;95186;-82
2023/09/03 08:35:36;;;;;;;10.48;5.32;;;;;;;;;;4979264;28;93055;-82
2023/09/03 08:38:03;;;;;;;12.18;6.70;;;;;;;;;;4990423;28;92654;-82
2023/09/03 08:40:32;;;;;;;12.32;6.60;;;;;;;;;;4988444;28;94112;-82
2023/09/03 08:43:00;;;;;;;12.25;7.55;;;;;;;;;;4975250;28;92483;-82
2023/09/03 08:45:28;;;;;;;12.38;6.78;;;;;;;;;;4988096;28;92692;-84
2023/09/03 08:47:55;;;;;;;13.85;7.35;;;;;;;;;;4971703;28;92969;-82
2023/09/03 08:50:23;;;;;;;11.95;6.88;;;;;;;;;;4991370;28;91791;-82
2023/09/03 08:52:52;;;;;;;10.55;6.13;;;;;;;;;;4958393;28;94793;-80
2023/09/03 08:55:19;;;;;;;10.10;5.72;;;;;;;;;;4971683;28;93058;-81
2023/09/03 08:57:45;;;;;;;9.23;4.00;;;;;;;;;;4991675;28;95177;-81
2023/09/03 09:00:12;;;;;;;9.45;3.97;;;;;;;;;;4982555;28;93198;-82
2023/09/03 09:02:38;;;;;;;7.20;3.00;;;;;;;;;;4983649;28;92848;-81
2023/09/03 09:05:06;;;;;;;9.63;3.08;;;;;;;;;;4990987;28;92795;-82
2023/09/03 09:07:33;;;;;;;8.40;3.45;;;;;;;;;;4997284;28;93693;-81
2023/09/03 09:10:04;;;;;;;7.00;2.60;;;;;;;;;;5003316;28;92192;-82
2023/09/03 09:12:32;;;;;;;12.70;4.43;;;;;;;;;;4983038;28;94539;-82
2023/09/03 09:14:59;;;;;;;12.25;5.07;;;;;;;;;;5002279;28;91955;-81
2023/09/03 09:17:28;;;;;;;10.40;4.57;;;;;;;;;;4997394;28;93943;-81
2023/09/03 09:20:00;;;;;;;10.23;3.20;;;;;;;;;;4985783;28;92858;-80
2023/09/03 09:22:27;;;;;;;6.63;2.80;;;;;;;;;;4988449;28;95911;-80
2023/09/03 09:24:54;;;;;;;6.55;2.50;;;;;;;;;;4978822;28;95331;-79
2023/09/03 09:27:22;;;;;;;7.32;2.10;;;;;;;;;;4981402;28;93011;-79
2023/09/03 09:29:49;;;;;;;4.53;2.10;;;;;;;;;;4986577;28;92964;-79
2023/09/03 09:32:19;;;;;;;8.07;4.13;;;;;;;;;;4988457;28;94932;-79
2023/09/03 09:34:46;;;;;;;6.93;2.30;;;;;;;;;;4986740;28;94110;-80
2023/09/03 09:37:13;;;;;;;9.18;4.25;;;;;;;;;;4983952;28;93797;-79
2023/09/03 09:39:46;;;;;;;8.60;2.97;;;;;;;;;;4985970;28;93162;-79
2023/09/03 09:42:13;;;;;;;;;;;;;;;;;;4986629;28;93525;-79
2023/09/03 09:45:00;;;;;;;6.70;2.10;;;;;;;;;;4987009;28;93631;-80
2023/09/03 09:47:27;;;;;;;4.95;1.92;;;;;;;;;;4980843;28;95655;-80
2023/09/03 09:49:53;;;;;;;;;;;;;;;;;;4984661;28;92422;-79
2023/09/03 09:52:20;;;;;;;4.72;2.00;;;;;;;;;;4984027;28;106960;-80
2023/09/03 09:54:47;;;;;;;5.47;2.15;;;;;;;;;;4988778;28;93050;-80
2023/09/03 09:57:14;;;;;;;;;;;;;;;;;;4966631;28;94600;-80
2023/09/03 09:59:44;;;;;;;5.75;2.20;;;;;;;;;;4986857;28;92460;-80
2023/09/03 10:02:14;;;;;;;5.85;2.00;;;;;;;;;;4986405;28;92963;-80
2023/09/03 10:04:45;;;;;;;7.03;2.17;;;;;;;;;;4988638;28;91763;-80
2023/09/03 10:07:12;;;;;;;6.53;2.10;;;;;;;;;;4984536;28;93273;-81
2023/09/03 10:09:39;;;;;;;5.68;2.05;;;;;;;;;;4990814;28;92588;-80
2023/09/03 10:12:06;;;;;;;;;;;;;;;;;;4976710;28;95258;-80
2023/09/03 10:14:32;;;;;;;4.90;1.63;;;;;;;;;;4971197;28;95446;-79
2023/09/03 10:17:02;;;;;;;4.97;2.10;;;;;;;;;;4991528;28;94735;-80
2023/09/03 10:19:44;;;;;;;5.38;1.90;;;;;;;;;;4973047;28;96122;-80
2023/09/03 10:22:13;;;;;;;5.13;1.60;;;;;;;;;;4984935;28;93161;-79
2023/09/03 10:24:42;;;;;;;5.30;1.90;;;;;;;;;;4985716;28;92615;-80
2023/09/03 10:27:12;;;;;;;5.40;1.80;;;;;;;;;;4994105;28;92486;-79
2023/09/03 10:29:40;;;;;;;5.25;1.67;;;;;;;;;;4979882;28;92404;-80
2023/09/03 10:32:07;;;;;;;4.70;1.52;;;;;;;;;;4973722;28;92394;-80
2023/09/03 10:34:37;;;;;;;5.10;1.60;;;;;;;;;;4966742;28;93384;-80
2023/09/03 10:37:05;;;;;;;3.70;1.40;;;;;;;;;;4962481;28;94956;-80
2023/09/03 10:39:32;;;;;;;5.20;1.60;;;;;;;;;;4977405;28;95052;-80
2023/09/03 10:42:17;;;;;;;5.82;1.70;;;;;;;;;;4990910;28;93175;-80
2023/09/03 10:44:53;;;;;;;8.52;2.15;;;;;;;;;;4985258;28;92453;-81
2023/09/03 10:47:20;;;;;;;6.18;1.55;;;;;;;;;;4991058;28;92828;-78
2023/09/03 10:49:48;;;;;;;7.35;2.45;;;;;;;;;;4992707;28;92445;-78
2023/09/03 10:52:35;;;;;;;5.57;1.60;;;;;;;;;;4985740;28;92931;-79
2023/09/03 10:55:28;;;;;;;2.70;1.20;;;;;;;;;;4967500;28;94057;-79
2023/09/03 10:58:25;;;;;;;3.72;1.42;;;;;;;;;;4977648;28;93152;-78
2023/09/03 11:01:26;;;;;;;4.97;1.80;;;;;;;;;;4972562;28;95771;-79
2023/09/03 11:03:53;;;;;;;4.25;2.13;;;;;;;;;;4929995;28;95653;-79
2023/09/03 11:06:24;;;;;;;5.82;2.00;;;;;;;;;;4976398;28;95152;-79
2023/09/03 11:09:09;;;;;;;5.40;1.90;;;;;;;;;;4985478;28;92848;-80
2023/09/03 11:11:38;;;;;;;4.75;2.00;;;;;;;;;;5009276;28;92401;-79
2023/09/03 11:14:10;;;;;;;4.53;2.00;;;;;;;;;;5005689;28;93420;-79
2023/09/03 11:16:37;;;;;;;5.93;2.20;;;;;;;;;;4991006;28;92393;-79
2023/09/03 11:19:07;;;;;;;5.32;2.13;;;;;;;;;;5003914;28;92341;-79
2023/09/03 11:21:34;;;;;;;4.95;2.10;;;;;;;;;;5009146;28;91620;-79
2023/09/03 11:24:16;;;;;;;7.55;1.70;;;;;;;;;;4971643;28;95126;-78
2023/09/03 11:26:43;;;;;;;6.03;2.10;;;;;;;;;;4985045;28;92731;-79
2023/09/03 11:29:24;;;;;;;7.65;2.75;;;;;;;;;;4975956;28;95113;-79
2023/09/03 11:31:51;;;;;;;7.10;3.30;;;;;;;;;;4986424;28;92552;-79
2023/09/03 11:34:18;;;;;;;3.70;1.70;;;;;;;;;;4967387;28;92498;-79
2023/09/03 11:36:48;;;;;;;6.68;2.50;;;;;;;;;;5006393;28;92372;-78
2023/09/03 11:39:16;;;;;;;4.63;2.00;;;;;;;;;;5004322;28;94142;-77
2023/09/03 11:41:43;;;;;;;2.55;1.50;;;;;;;;;;5002444;28;92373;-77
2023/09/03 11:44:18;;;;;;;3.17;1.55;;;;;;;;;;4976665;28;94151;-79
2023/09/03 11:46:57;;;;;;;4.05;1.92;;;;;;;;;;4992107;28;91624;-79
2023/09/03 11:49:24;;;;;;;4.80;1.88;;;;;;;;;;4994328;28;92538;-78
2023/09/03 11:51:52;;;;;;;4.07;1.50;;;;;;;;;;4980886;28;93231;-79
2023/09/03 11:54:22;;;;;;;2.95;1.30;;;;;;;;;;4992160;28;95231;-78
2023/09/03 11:56:49;;;;;;;2.85;1.30;;;;;;;;;;4995933;28;94542;-78
2023/09/03 11:59:16;;;;;;;4.15;1.30;;;;;;;;;;4972103;28;92504;-78
2023/09/03 12:01:42;;;;;;;3.88;1.30;;;;;;;;;;4985250;28;94418;-78
2023/09/03 12:04:11;;;;;;;4.60;1.20;;;;;;;;;;4989469;28;93037;-78
2023/09/03 12:06:38;;;;;;;4.68;1.23;;;;;;;;;;4988102;28;92337;-78
2023/09/03 12:09:05;;;;;;;3.40;1.40;;;;;;;;;;4983089;28;92778;-78
2023/09/03 12:11:31;;;;;;;2.58;1.25;;;;;;;;;;4970386;28;93418;-79
2023/09/03 12:13:58;;;;;;;3.60;1.23;;;;;;;;;;4970706;28;93029;-79
2023/09/03 12:16:25;;;;;;;5.43;1.30;;;;;;;;;;4984344;28;93272;-78
2023/09/03 12:18:59;;;;;;;2.60;1.20;;;;;;;;;;4981267;28;95671;-79
2023/09/03 12:21:35;;;;;;;3.70;1.40;;;;;;;;;;4988474;28;95169;-79
2023/09/03 12:24:03;;;;;;;2.67;1.30;;;;;;;;;;4989362;28;93367;-78
2023/09/03 12:26:31;;;;;;;4.35;1.15;;;;;;;;;;4989476;28;92478;-79
2023/09/03 12:28:59;;;;;;;2.92;1.13;;;;;;;;;;4972430;28;93102;-79
2023/09/03 12:31:39;;;;;;;2.15;1.15;;;;;;;;;;4971747;28;93332;-79
2023/09/03 12:34:06;;;;;;;4.50;1.40;;;;;;;;;;4989994;28;93710;-78
2023/09/03 12:36:33;;;;;;;1.83;1.20;;;;;;;;;;4973274;28;95804;-78
2023/09/03 12:39:00;;;;;;;2.28;1.20;;;;;;;;;;4989925;28;93581;-78
2023/09/03 12:41:26;;;;;;;;;;;;;;;;;;4992925;28;92747;-78
2023/09/03 12:43:56;;;;;;;2.78;1.35;;;;;;;;;;4989636;28;96395;-78
2023/09/03 12:46:23;;;;;;;2.33;1.02;;;;;;;;;;4989373;28;92420;-78
2023/09/03 12:48:50;;;;;;;2.22;1.20;;;;;;;;;;4990111;28;92835;-78
2023/09/03 12:51:16;;;;;;;2.30;1.23;;;;;;;;;;4989281;28;93383;-80
2023/09/03 12:53:47;;;;;;;1.58;1.10;;;;;;;;;;4990110;28;93000;-78
2023/09/03 12:56:14;;;;;;;2.05;1.20;;;;;;;;;;4972397;28;92670;-80
2023/09/03 12:58:43;;;;;;;1.60;1.00;;;;;;;;;;4971170;28;94911;-78
2023/09/03 13:01:11;;;;;;;1.58;1.10;;;;;;;;;;4993091;28;92278;-79
2023/09/03 13:03:37;;;;;;;2.05;1.15;;;;;;;;;;4967064;28;96006;-79
2023/09/03 13:06:05;;;;;;;2.40;1.17;;;;;;;;;;4972132;28;92442;-79
2023/09/03 13:08:32;;;;;;;;;;;;;;;;;;4970175;28;95530;-79
2023/09/03 13:10:59;;;;;;;1.92;1.05;;;;;;;;;;4990567;28;94252;-79
2023/09/03 13:13:26;;;;;;;1.73;1.10;;;;;;;;;;4971882;28;92737;-79
2023/09/03 13:15:54;;;;;;;4.32;1.20;;;;;;;;;;4988986;28;93205;-79
2023/09/03 13:18:21;;;;;;;1.85;1.02;;;;;;;;;;4989151;28;93076;-79
2023/09/03 13:20:47;;;;;;;2.30;1.05;;;;;;;;;;4971317;28;92635;-79
2023/09/03 13:23:14;;;;;;;2.53;1.05;;;;;;;;;;4992038;28;92929;-79
2023/09/03 13:25:41;;;;;;;1.30;1.05;;;;;;;;;;4971959;28;91698;-79
2023/09/03 13:28:08;;;;;;;2.10;1.00;;;;;;;;;;4971446;28;92481;-79
2023/09/03 13:30:35;;;;;;;2.22;1.00;;;;;;;;;;4989072;28;94043;-79
2023/09/03 13:33:05;;;;;;;1.17;1.00;;;;;;;;;;4991309;28;94906;-79
2023/09/03 13:35:33;;;;;;;2.28;1.20;;;;;;;;;;4993420;28;95118;-80
2023/09/03 13:38:00;;;;;;;2.78;1.00;;;;;;;;;;4958789;28;93145;-79
2023/09/03 13:40:26;;;;;;;1.98;1.10;;;;;;;;;;4992576;28;92483;-79
2023/09/03 13:42:53;;;;;;;2.17;1.00;;;;;;;;;;4992901;28;94243;-79
2023/09/03 13:45:19;;;;;;;2.28;1.20;;;;;;;;;;4995225;28;92466;-79
2023/09/03 13:47:46;;;;;;;1.40;1.00;;;;;;;;;;4974105;28;94343;-79
2023/09/03 13:50:13;;;;;;;1.48;1.00;;;;;;;;;;4974626;28;93892;-78
2023/09/03 13:52:39;;;;;;;1.92;1.10;;;;;;;;;;4992611;28;92634;-79
2023/09/03 13:55:06;;;;;;;1.70;1.10;;;;;;;;;;4992345;28;93025;-79
2023/09/03 13:57:33;;;;;;;1.40;1.00;;;;;;;;;;4972739;28;98077;-79
2023/09/03 14:00:00;;;;;;;2.13;1.00;;;;;;;;;;4993245;28;92831;-79
2023/09/03 14:02:32;;;;;;;1.73;1.10;;;;;;;;;;4989740;28;92536;-79
2023/09/03 14:04:58;;;;;;;1.92;1.00;;;;;;;;;;4992207;28;93353;-78
2023/09/03 14:07:25;;;;;;;1.75;1.00;;;;;;;;;;4997355;28;92502;-78
2023/09/03 14:09:53;;;;;;;1.45;1.00;;;;;;;;;;4975842;28;92943;-79
2023/09/03 14:12:20;;;;;;;1.95;1.00;;;;;;;;;;4977975;28;93525;-79
2023/09/03 14:14:46;;;;;;;1.55;0.95;;;;;;;;;;4991784;28;93710;-79
2023/09/03 14:17:13;;;;;;;1.92;1.10;;;;;;;;;;4995661;28;92460;-79
2023/09/03 14:19:40;;;;;;;1.23;0.90;;;;;;;;;;4997735;28;92401;-80
2023/09/03 14:22:06;;;;;;;1.73;1.00;;;;;;;;;;4993003;28;94762;-79
2023/09/03 14:24:34;;;;;;;2.70;1.20;;;;;;;;;;4991612;28;93252;-79
2023/09/03 14:27:00;;;;;;;1.85;1.08;;;;;;;;;;4992214;28;92400;-79
2023/09/03 14:29:27;;;;;;;2.15;1.10;;;;;;;;;;4994781;28;92390;-78
2023/09/03 14:31:53;;;;;;;1.90;0.90;;;;;;;;;;4957955;28;92477;-78
2023/09/03 14:34:20;;;;;;;1.65;1.00;;;;;;;;;;4992356;28;93356;-78
2023/09/03 14:36:46;;;;;;;1.38;0.90;;;;;;;;;;4991979;28;93013;-79
2023/09/03 14:39:13;;;;;;;2.20;1.20;;;;;;;;;;4992905;28;92376;-79
2023/09/03 14:41:40;;;;;;;1.20;0.93;;;;;;;;;;4973564;28;95654;-79
2023/09/03 14:44:07;;;;;;;3.00;1.10;;;;;;;;;;4981903;28;93138;-79
2023/09/03 14:46:33;;;;;;;1.30;0.95;;;;;;;;;;4985186;28;94874;-79
2023/09/03 14:49:01;;;;;;;1.83;1.00;;;;;;;;;;4976409;28;99142;-78
2023/09/03 14:51:28;;;;;;;1.70;1.00;;;;;;;;;;4973324;28;92909;-79